Time;durP1;ratioP1;P1;durP2;ratioP2;P2;SDS_P1;SDS_P2;PMS_P1;PMS_P2;Temp;Humidity;BMP_temperature;BMP_pressure;BME280_temperature;BME280_humidity;BME280_pressure;Samples;Min_cycle;Max_cycle;Signal;HPM_P1;HPM_P2
2021/05/19 00:02:25;;;;;;;2.05;0.60;;;;;;;;;;5053540;28;20233;-64
2021/05/19 00:04:52;;;;;;;0.60;0.60;;;;;;;;;;5053695;28;20260;-64
2021/05/19 00:07:18;;;;;;;4.03;1.02;;;;;;;;;;5054161;28;20304;-63
2021/05/19 00:09:44;;;;;;;1.05;1.05;;;;;;;;;;5052745;28;20176;-64
2021/05/19 00:12:10;;;;;;;1.00;1.00;;;;;;;;;;5053199;28;20659;-63
2021/05/19 00:14:36;;;;;;;0.80;0.80;;;;;;;;;;5053080;28;20412;-63
2021/05/19 00:17:02;;;;;;;0.83;0.83;;;;;;;;;;5035266;28;20200;-63
2021/05/19 00:19:28;;;;;;;0.85;0.75;;;;;;;;;;5052406;28;20454;-64
2021/05/19 00:21:54;;;;;;;0.50;0.50;;;;;;;;;;5052565;28;20554;-63
2021/05/19 00:24:20;;;;;;;0.80;0.80;;;;;;;;;;5052995;28;20399;-63
2021/05/19 00:26:46;;;;;;;0.60;0.60;;;;;;;;;;5052832;28;20578;-63
2021/05/19 00:29:12;;;;;;;0.77;0.77;;;;;;;;;;5052397;28;20175;-64
2021/05/19 00:31:41;;;;;;;0.75;0.75;;;;;;;;;;5052944;28;20399;-64
2021/05/19 00:34:07;;;;;;;0.40;0.40;;;;;;;;;;5052990;28;20682;-63
2021/05/19 00:36:33;;;;;;;1.02;0.73;;;;;;;;;;5052650;28;20188;-64
2021/05/19 00:38:59;;;;;;;0.70;0.70;;;;;;;;;;5052027;28;20586;-63
2021/05/19 00:41:25;;;;;;;0.87;0.87;;;;;;;;;;5052573;28;20171;-63
2021/05/19 00:43:51;;;;;;;0.75;0.75;;;;;;;;;;5052743;28;20398;-64
2021/05/19 00:46:17;;;;;;;0.60;0.60;;;;;;;;;;5052533;28;20279;-63
2021/05/19 00:48:43;;;;;;;1.05;0.95;;;;;;;;;;5052109;28;20172;-63
2021/05/19 00:51:09;;;;;;;0.87;0.87;;;;;;;;;;5052355;28;20176;-63
2021/05/19 00:53:35;;;;;;;0.80;0.63;;;;;;;;;;5052991;28;20406;-64
2021/05/19 00:56:01;;;;;;;0.50;0.50;;;;;;;;;;5052213;28;20422;-63
2021/05/19 00:58:28;;;;;;;1.77;1.15;;;;;;;;;;5052063;28;20175;-63
2021/05/19 01:00:54;;;;;;;0.70;0.70;;;;;;;;;;5051677;28;20168;-63
2021/05/19 01:03:20;;;;;;;0.93;0.93;;;;;;;;;;5052222;28;20168;-63
2021/05/19 01:05:52;;;;;;;0.93;0.93;;;;;;;;;;5052080;28;20730;-64
2021/05/19 01:11:08;;;;;;;0.88;0.88;;;;;;;;;;5051663;28;20225;-63
2021/05/19 01:13:34;;;;;;;0.90;0.90;;;;;;;;;;5052091;28;20172;-63
2021/05/19 01:16:01;;;;;;;0.57;0.57;;;;;;;;;;5052009;28;20192;-63
2021/05/19 01:18:27;;;;;;;1.35;1.08;;;;;;;;;;5051788;28;20171;-63
2021/05/19 01:20:55;;;;;;;0.70;0.70;;;;;;;;;;5051208;28;20629;-63
2021/05/19 01:23:22;;;;;;;0.77;0.73;;;;;;;;;;5051891;28;20690;-63
2021/05/19 01:25:48;;;;;;;1.15;1.05;;;;;;;;;;5051940;28;20196;-63
2021/05/19 01:28:14;;;;;;;0.80;0.80;;;;;;;;;;5031934;28;20179;-64
2021/05/19 01:30:41;;;;;;;1.08;0.90;;;;;;;;;;5051061;28;20467;-63
2021/05/19 01:33:07;;;;;;;0.63;0.63;;;;;;;;;;5051927;28;20663;-63
2021/05/19 01:35:33;;;;;;;1.80;1.00;;;;;;;;;;5051620;28;20238;-64
2021/05/19 01:37:59;;;;;;;1.02;1.02;;;;;;;;;;5051660;28;20595;-64
2021/05/19 01:40:27;;;;;;;0.63;0.63;;;;;;;;;;5050866;28;20213;-63
2021/05/19 01:42:53;;;;;;;0.93;0.93;;;;;;;;;;5051582;28;20168;-63
2021/05/19 01:45:25;;;;;;;0.77;0.77;;;;;;;;;;5051308;28;20183;-64
2021/05/19 01:47:52;;;;;;;1.58;1.15;;;;;;;;;;5051563;28;20527;-63
2021/05/19 01:50:19;;;;;;;0.70;0.70;;;;;;;;;;5033261;28;20604;-64
2021/05/19 01:52:46;;;;;;;0.95;0.80;;;;;;;;;;5051561;28;20262;-64
2021/05/19 01:55:13;;;;;;;0.82;0.82;;;;;;;;;;5051283;28;20676;-64
2021/05/19 01:57:39;;;;;;;0.80;0.75;;;;;;;;;;5051310;28;20182;-63
2021/05/19 02:00:06;;;;;;;0.80;0.80;;;;;;;;;;5050595;28;20213;-63
2021/05/19 02:02:32;;;;;;;0.80;0.80;;;;;;;;;;5051361;28;20182;-63
2021/05/19 02:04:59;;;;;;;2.15;1.23;;;;;;;;;;5049668;28;20172;-63
2021/05/19 02:07:25;;;;;;;0.73;0.73;;;;;;;;;;5051008;28;20208;-64
2021/05/19 02:09:50;;;;;;;0.70;0.70;;;;;;;;;;5050591;28;20179;-63
2021/05/19 02:12:17;;;;;;;1.00;1.00;;;;;;;;;;5051264;28;20406;-64
2021/05/19 02:14:43;;;;;;;1.45;1.35;;;;;;;;;;5051127;28;20414;-63
2021/05/19 02:17:09;;;;;;;1.45;1.40;;;;;;;;;;5051161;28;20231;-63
2021/05/19 02:19:36;;;;;;;0.77;0.77;;;;;;;;;;5050384;28;20731;-63
2021/05/19 02:22:03;;;;;;;0.68;0.68;;;;;;;;;;5051321;28;20176;-64
2021/05/19 02:24:29;;;;;;;1.35;1.00;;;;;;;;;;5051147;28;20177;-63
2021/05/19 02:26:55;;;;;;;0.88;0.88;;;;;;;;;;5051175;28;20239;-63
2021/05/19 02:29:21;;;;;;;1.00;1.00;;;;;;;;;;5050872;28;20411;-63
2021/05/19 02:31:47;;;;;;;0.57;0.57;;;;;;;;;;5051274;28;20414;-63
2021/05/19 02:34:14;;;;;;;1.48;1.38;;;;;;;;;;5051120;28;20229;-63
2021/05/19 02:36:40;;;;;;;0.85;0.85;;;;;;;;;;5051124;28;20260;-63
2021/05/19 02:39:09;;;;;;;0.60;0.60;;;;;;;;;;5050305;28;20199;-63
2021/05/19 02:41:35;;;;;;;0.70;0.70;;;;;;;;;;5050937;28;20176;-63
2021/05/19 02:44:01;;;;;;;0.88;0.88;;;;;;;;;;5051069;28;20173;-63
2021/05/19 02:46:27;;;;;;;0.80;0.80;;;;;;;;;;5054763;28;20184;-63
2021/05/19 02:49:01;;;;;;;0.80;0.80;;;;;;;;;;5054623;28;20414;-63
2021/05/19 02:51:27;;;;;;;0.70;0.70;;;;;;;;;;5054735;28;20179;-63
2021/05/19 02:53:53;;;;;;;1.35;1.05;;;;;;;;;;5054667;28;20179;-63
2021/05/19 02:56:19;;;;;;;1.23;1.23;;;;;;;;;;5054611;28;20207;-63
2021/05/19 02:58:45;;;;;;;1.50;0.83;;;;;;;;;;5054063;28;20906;-63
2021/05/19 03:01:11;;;;;;;0.70;0.70;;;;;;;;;;5054344;28;20405;-63
2021/05/19 03:03:37;;;;;;;1.23;1.23;;;;;;;;;;5054536;28;20398;-63
2021/05/19 03:11:09;;;;;;;0.70;0.70;;;;;;;;;;4988633;28;20226;-65
2021/05/19 03:13:35;;;;;;;0.70;0.70;;;;;;;;;;4995018;28;20245;-65
2021/05/19 03:16:01;;;;;;;0.60;0.55;;;;;;;;;;4995354;28;20177;-65
2021/05/19 03:18:27;;;;;;;0.70;0.70;;;;;;;;;;4994515;28;20645;-65
2021/05/19 03:20:53;;;;;;;3.43;1.43;;;;;;;;;;5012772;28;20201;-65
2021/05/19 03:23:19;;;;;;;0.90;0.90;;;;;;;;;;5014674;28;20416;-65
2021/05/19 03:25:45;;;;;;;1.58;0.80;;;;;;;;;;5015444;28;20177;-65
2021/05/19 03:28:11;;;;;;;0.93;0.93;;;;;;;;;;5014541;28;20623;-65
2021/05/19 03:30:37;;;;;;;0.88;0.88;;;;;;;;;;5014278;28;20432;-65
2021/05/19 03:33:04;;;;;;;1.27;0.70;;;;;;;;;;5014560;28;20704;-65
2021/05/19 03:35:30;;;;;;;0.80;0.80;;;;;;;;;;5014501;28;20663;-65
2021/05/19 03:37:56;;;;;;;0.70;0.70;;;;;;;;;;5014370;28;20638;-65
2021/05/19 03:40:22;;;;;;;1.77;0.80;;;;;;;;;;5014286;28;20248;-65
2021/05/19 03:42:49;;;;;;;1.25;1.00;;;;;;;;;;5014633;28;20567;-65
2021/05/19 03:45:17;;;;;;;0.60;0.60;;;;;;;;;;5014387;28;20636;-65
2021/05/19 03:47:46;;;;;;;0.70;0.70;;;;;;;;;;5013749;28;20201;-65
2021/05/19 03:50:12;;;;;;;0.70;0.70;;;;;;;;;;5013956;28;20197;-65
2021/05/19 03:52:38;;;;;;;2.35;1.20;;;;;;;;;;5014041;28;20189;-65
2021/05/19 03:55:06;;;;;;;0.70;0.60;;;;;;;;;;5014104;28;20264;-65
2021/05/19 03:57:32;;;;;;;1.05;1.05;;;;;;;;;;5012996;28;20707;-65
2021/05/19 03:59:58;;;;;;;0.75;0.73;;;;;;;;;;5013663;28;20214;-65
2021/05/19 04:02:24;;;;;;;0.83;0.83;;;;;;;;;;5014054;28;20280;-65
2021/05/19 04:04:50;;;;;;;1.30;1.20;;;;;;;;;;5013946;28;20413;-65
2021/05/19 04:07:16;;;;;;;0.68;0.68;;;;;;;;;;5013051;28;20419;-64
2021/05/19 04:09:42;;;;;;;1.60;0.63;;;;;;;;;;5012892;28;20259;-65
2021/05/19 04:12:08;;;;;;;0.70;0.70;;;;;;;;;;5013240;28;20282;-65
2021/05/19 04:14:34;;;;;;;0.60;0.60;;;;;;;;;;5013310;28;20188;-65
2021/05/19 04:17:00;;;;;;;1.10;1.10;;;;;;;;;;5013168;28;20184;-65
2021/05/19 04:19:27;;;;;;;14.03;1.90;;;;;;;;;;5013180;28;20238;-65
2021/05/19 04:21:53;;;;;;;0.50;0.50;;;;;;;;;;5013375;28;20416;-65
2021/05/19 04:24:19;;;;;;;0.80;0.80;;;;;;;;;;5012740;28;20707;-65
2021/05/19 04:26:45;;;;;;;1.27;1.20;;;;;;;;;;5013406;28;20418;-65
2021/05/19 04:29:11;;;;;;;1.67;1.57;;;;;;;;;;5012776;28;20197;-65
2021/05/19 04:31:37;;;;;;;0.60;0.60;;;;;;;;;;5012936;28;20420;-65
2021/05/19 04:34:03;;;;;;;1.10;1.00;;;;;;;;;;5013153;28;20176;-65
2021/05/19 04:36:29;;;;;;;0.60;0.60;;;;;;;;;;5013298;28;20526;-65
2021/05/19 04:38:56;;;;;;;0.75;0.75;;;;;;;;;;5010931;28;20720;-65
2021/05/19 04:41:22;;;;;;;1.20;1.10;;;;;;;;;;5009972;28;20273;-65
2021/05/19 04:43:48;;;;;;;0.57;0.57;;;;;;;;;;5012997;28;20712;-65
2021/05/19 04:46:15;;;;;;;1.13;1.05;;;;;;;;;;5012849;28;20421;-65
2021/05/19 04:48:41;;;;;;;0.88;0.88;;;;;;;;;;5012678;28;20616;-65
2021/05/19 04:51:07;;;;;;;1.52;1.13;;;;;;;;;;5010705;28;20615;-65
2021/05/19 04:53:33;;;;;;;1.00;1.00;;;;;;;;;;5012696;28;20204;-64
2021/05/19 04:55:59;;;;;;;0.63;0.63;;;;;;;;;;5013018;28;20248;-65
2021/05/19 04:58:26;;;;;;;1.38;1.38;;;;;;;;;;5012047;28;20942;-64
2021/05/19 05:00:53;;;;;;;0.60;0.60;;;;;;;;;;4994822;28;20201;-65
2021/05/19 05:03:19;;;;;;;1.15;0.75;;;;;;;;;;5012693;28;20235;-65
2021/05/19 05:05:50;;;;;;;0.80;0.80;;;;;;;;;;5011713;28;20178;-65
2021/05/19 05:08:16;;;;;;;1.25;1.25;;;;;;;;;;4993588;28;20742;-65
2021/05/19 05:10:42;;;;;;;0.82;0.63;;;;;;;;;;5012532;28;20201;-65
2021/05/19 05:13:09;;;;;;;1.10;1.10;;;;;;;;;;5012576;28;20185;-65
2021/05/19 05:15:35;;;;;;;1.40;1.08;;;;;;;;;;5012610;28;20791;-66
2021/05/19 05:18:01;;;;;;;1.00;1.00;;;;;;;;;;5012586;28;20216;-66
2021/05/19 05:20:27;;;;;;;1.40;1.30;;;;;;;;;;5012240;28;20619;-66
2021/05/19 05:22:53;;;;;;;0.95;0.95;;;;;;;;;;5012524;28;20507;-66
2021/05/19 05:25:21;;;;;;;1.33;1.02;;;;;;;;;;5012761;28;20189;-66
2021/05/19 05:27:47;;;;;;;0.60;0.60;;;;;;;;;;5012558;28;20165;-66
2021/05/19 05:30:13;;;;;;;1.10;1.10;;;;;;;;;;5012290;28;20300;-66
2021/05/19 05:32:40;;;;;;;1.35;1.25;;;;;;;;;;5012428;28;20177;-66
2021/05/19 05:35:07;;;;;;;1.80;1.50;;;;;;;;;;5012218;28;20602;-66
2021/05/19 05:37:33;;;;;;;1.15;1.15;;;;;;;;;;5012395;28;20240;-65
2021/05/19 05:39:59;;;;;;;1.40;1.40;;;;;;;;;;5011974;28;20284;-65
2021/05/19 05:42:27;;;;;;;0.93;0.93;;;;;;;;;;5012117;28;20169;-66
2021/05/19 05:44:53;;;;;;;1.00;1.00;;;;;;;;;;5012337;28;20602;-65
2021/05/19 05:47:20;;;;;;;1.10;1.00;;;;;;;;;;5012482;28;20660;-65
2021/05/19 05:49:46;;;;;;;1.30;1.20;;;;;;;;;;4999243;28;20202;-66
2021/05/19 05:52:12;;;;;;;0.73;0.73;;;;;;;;;;4992317;28;20189;-65
2021/05/19 05:54:38;;;;;;;1.67;1.35;;;;;;;;;;4992290;28;20405;-65
2021/05/19 05:57:05;;;;;;;1.52;1.15;;;;;;;;;;4992086;28;20225;-65
2021/05/19 05:59:31;;;;;;;2.25;2.08;;;;;;;;;;4991815;28;20338;-65
2021/05/19 06:01:57;;;;;;;1.33;1.30;;;;;;;;;;4992452;28;20187;-65
2021/05/19 06:04:23;;;;;;;1.80;1.65;;;;;;;;;;4992597;28;20548;-65
2021/05/19 06:06:49;;;;;;;1.77;1.43;;;;;;;;;;4992195;28;20661;-65
2021/05/19 06:09:15;;;;;;;1.20;1.20;;;;;;;;;;4991822;28;20467;-65
2021/05/19 06:11:41;;;;;;;1.52;1.42;;;;;;;;;;4992023;28;20186;-65
2021/05/19 06:14:07;;;;;;;1.67;1.17;;;;;;;;;;4992115;28;20174;-65
2021/05/19 06:16:34;;;;;;;1.20;1.05;;;;;;;;;;4992311;28;20565;-66
2021/05/19 06:19:00;;;;;;;0.70;0.70;;;;;;;;;;4991582;28;20260;-65
2021/05/19 06:21:26;;;;;;;1.95;1.00;;;;;;;;;;4995102;28;20206;-65
2021/05/19 06:23:52;;;;;;;2.60;1.33;;;;;;;;;;4996222;28;20174;-65
2021/05/19 06:26:18;;;;;;;0.97;0.93;;;;;;;;;;4996218;28;20170;-66
2021/05/19 06:28:44;;;;;;;1.80;1.70;;;;;;;;;;4996068;28;20413;-66
2021/05/19 06:31:10;;;;;;;1.00;1.00;;;;;;;;;;4995047;28;20414;-65
2021/05/19 06:33:36;;;;;;;4.47;1.40;;;;;;;;;;5006990;28;20170;-66
2021/05/19 06:36:03;;;;;;;1.50;1.33;;;;;;;;;;5014702;28;20192;-66
2021/05/19 06:38:29;;;;;;;1.20;1.20;;;;;;;;;;5014953;28;20181;-65
2021/05/19 06:40:55;;;;;;;1.50;1.40;;;;;;;;;;5015222;28;20553;-65
2021/05/19 06:43:21;;;;;;;1.40;1.30;;;;;;;;;;5015233;28;20169;-65
2021/05/19 06:45:47;;;;;;;0.70;0.70;;;;;;;;;;5015083;28;20260;-65
2021/05/19 06:48:13;;;;;;;1.20;1.17;;;;;;;;;;5015110;28;20779;-65
2021/05/19 06:50:39;;;;;;;0.90;0.90;;;;;;;;;;5014788;28;20284;-65
2021/05/19 06:53:06;;;;;;;2.53;2.33;;;;;;;;;;5014855;28;20401;-65
2021/05/19 06:55:32;;;;;;;1.23;1.10;;;;;;;;;;5014883;28;20850;-66
2021/05/19 06:57:58;;;;;;;1.80;1.70;;;;;;;;;;5015349;28;20266;-65
2021/05/19 07:00:24;;;;;;;1.27;1.17;;;;;;;;;;5014517;28;20296;-65
2021/05/19 07:02:50;;;;;;;1.03;1.03;;;;;;;;;;5014810;28;20425;-65
2021/05/19 07:05:16;;;;;;;1.23;1.13;;;;;;;;;;5015145;28;20466;-65
2021/05/19 07:07:46;;;;;;;1.23;1.10;;;;;;;;;;5014898;28;20632;-65
2021/05/19 07:10:12;;;;;;;0.90;0.90;;;;;;;;;;5014431;28;20437;-65
2021/05/19 07:12:38;;;;;;;1.20;1.10;;;;;;;;;;5014685;28;20185;-65
2021/05/19 07:15:11;;;;;;;1.80;1.70;;;;;;;;;;5014469;28;20169;-66
2021/05/19 07:17:37;;;;;;;1.20;1.20;;;;;;;;;;5014737;28;20412;-64
2021/05/19 07:20:04;;;;;;;1.67;1.58;;;;;;;;;;5014514;28;20288;-65
2021/05/19 07:22:31;;;;;;;0.93;0.75;;;;;;;;;;4997104;28;20290;-65
2021/05/19 07:24:57;;;;;;;1.20;1.20;;;;;;;;;;5014107;28;20250;-65
2021/05/19 07:27:23;;;;;;;0.80;0.80;;;;;;;;;;5014425;28;20254;-65
2021/05/19 07:29:49;;;;;;;0.80;0.80;;;;;;;;;;5013847;28;20429;-65
2021/05/19 07:32:15;;;;;;;0.87;0.87;;;;;;;;;;5014347;28;20405;-65
2021/05/19 07:34:41;;;;;;;0.88;0.88;;;;;;;;;;5014322;28;20438;-65
2021/05/19 07:37:07;;;;;;;0.95;0.95;;;;;;;;;;5014308;28;20205;-66
2021/05/19 07:39:33;;;;;;;0.68;0.65;;;;;;;;;;5014059;28;20202;-66
2021/05/19 07:41:59;;;;;;;1.70;1.13;;;;;;;;;;5014294;28;20165;-66
2021/05/19 07:44:25;;;;;;;1.00;0.90;;;;;;;;;;5014146;28;20683;-66
2021/05/19 07:46:51;;;;;;;0.85;0.85;;;;;;;;;;5014286;28;20209;-65
2021/05/19 07:49:17;;;;;;;1.20;1.10;;;;;;;;;;4998831;28;20253;-65
2021/05/19 07:51:43;;;;;;;0.80;0.80;;;;;;;;;;4994097;28;20188;-65
2021/05/19 07:54:13;;;;;;;0.88;0.88;;;;;;;;;;4993829;28;20182;-65
2021/05/19 07:56:52;;;;;;;1.30;1.25;;;;;;;;;;4993772;28;20190;-65
2021/05/19 07:59:21;;;;;;;0.90;0.80;;;;;;;;;;4993855;28;20222;-65
2021/05/19 08:04:19;;;;;;;1.73;1.30;;;;;;;;;;4996009;28;20190;-66
2021/05/19 08:06:45;;;;;;;0.80;0.80;;;;;;;;;;4993959;28;20182;-65
2021/05/19 08:09:11;;;;;;;1.50;1.40;;;;;;;;;;4993553;28;20198;-67
2021/05/19 08:11:38;;;;;;;1.00;1.00;;;;;;;;;;4993729;28;20429;-64
2021/05/19 08:14:04;;;;;;;5.95;1.50;;;;;;;;;;4993823;28;20413;-65
2021/05/19 08:16:30;;;;;;;0.80;0.80;;;;;;;;;;4993554;28;20549;-65
2021/05/19 08:18:56;;;;;;;0.85;0.85;;;;;;;;;;4993240;28;20743;-65
2021/05/19 08:21:22;;;;;;;1.50;1.27;;;;;;;;;;4993648;28;20183;-65
2021/05/19 08:23:48;;;;;;;0.95;0.95;;;;;;;;;;4993949;28;20402;-66
2021/05/19 08:26:14;;;;;;;1.70;0.90;;;;;;;;;;4993869;28;20608;-65
2021/05/19 08:28:40;;;;;;;1.53;1.43;;;;;;;;;;4993053;28;20429;-66
2021/05/19 08:31:08;;;;;;;1.50;0.88;;;;;;;;;;4993483;28;20422;-65
2021/05/19 08:33:34;;;;;;;1.40;1.33;;;;;;;;;;4993381;28;20171;-65
2021/05/19 08:36:00;;;;;;;0.80;0.70;;;;;;;;;;4993308;28;20267;-65
2021/05/19 08:38:26;;;;;;;1.10;1.10;;;;;;;;;;4992052;28;20421;-64
2021/05/19 08:40:52;;;;;;;0.95;0.95;;;;;;;;;;4993277;28;20477;-65
2021/05/19 08:43:18;;;;;;;1.38;1.30;;;;;;;;;;4992978;28;20173;-65
2021/05/19 08:45:45;;;;;;;0.70;0.70;;;;;;;;;;5004815;28;20651;-66
2021/05/19 08:48:11;;;;;;;1.02;1.02;;;;;;;;;;5012871;28;20401;-65
2021/05/19 08:50:38;;;;;;;0.90;0.90;;;;;;;;;;5012431;28;20585;-65
2021/05/19 08:53:08;;;;;;;0.65;0.65;;;;;;;;;;5012461;28;20277;-65
2021/05/19 08:55:35;;;;;;;0.98;0.70;;;;;;;;;;5012579;28;20609;-64
2021/05/19 08:58:01;;;;;;;0.82;0.82;;;;;;;;;;5012501;28;20179;-67
2021/05/19 09:00:28;;;;;;;1.17;0.80;;;;;;;;;;5011671;28;20216;-65
2021/05/19 09:03:23;;;;;;;1.35;1.25;;;;;;;;;;5012470;28;20412;-66
2021/05/19 09:05:49;;;;;;;0.80;0.80;;;;;;;;;;4996020;28;20660;-65
2021/05/19 09:08:16;;;;;;;2.30;0.70;;;;;;;;;;5012498;28;20412;-66
2021/05/19 09:10:43;;;;;;;1.07;0.80;;;;;;;;;;5012207;28;21048;-66
2021/05/19 09:13:28;;;;;;;0.80;0.80;;;;;;;;;;5012452;28;20399;-66
2021/05/19 09:15:54;;;;;;;0.77;0.57;;;;;;;;;;5012311;28;20420;-66
2021/05/19 09:18:20;;;;;;;1.40;0.87;;;;;;;;;;5012732;28;20396;-65
2021/05/19 09:20:47;;;;;;;0.73;0.73;;;;;;;;;;5014718;28;20479;-65
2021/05/19 09:23:19;;;;;;;0.60;0.60;;;;;;;;;;4996418;28;20846;-65
2021/05/19 09:25:45;;;;;;;0.60;0.60;;;;;;;;;;5053138;22;20530;-63
2021/05/19 09:28:23;;;;;;;0.60;0.60;;;;;;;;;;5031423;28;20395;-65
2021/05/19 09:30:49;;;;;;;0.93;0.70;;;;;;;;;;5031427;28;20435;-66
2021/05/19 09:33:18;;;;;;;0.63;0.60;;;;;;;;;;5031229;28;20404;-63
2021/05/19 09:35:45;;;;;;;0.70;0.70;;;;;;;;;;5031455;28;20912;-63
2021/05/19 09:38:30;;;;;;;0.60;0.60;;;;;;;;;;5031438;28;20887;-62
2021/05/19 09:41:16;;;;;;;1.03;0.60;;;;;;;;;;5031473;28;20957;-63
2021/05/19 09:43:42;;;;;;;0.60;0.60;;;;;;;;;;5014499;28;20473;-63
2021/05/19 09:46:42;;;;;;;0.70;0.70;;;;;;;;;;5031358;28;20431;-63
2021/05/19 09:49:13;;;;;;;0.90;0.70;;;;;;;;;;5027083;28;20423;-63
2021/05/19 09:51:40;;;;;;;0.60;0.57;;;;;;;;;;5031392;28;20386;-63
2021/05/19 09:54:06;;;;;;;0.70;0.60;;;;;;;;;;5030144;28;20466;-63
2021/05/19 09:56:33;;;;;;;0.50;0.50;;;;;;;;;;5013009;28;20849;-63
2021/05/19 09:58:59;;;;;;;0.70;0.70;;;;;;;;;;5030854;28;20451;-63
2021/05/19 10:01:25;;;;;;;0.70;0.70;;;;;;;;;;5031028;28;20886;-63
2021/05/19 10:03:52;;;;;;;0.93;0.87;;;;;;;;;;5031047;28;20516;-63
2021/05/19 10:06:28;;;;;;;0.80;0.80;;;;;;;;;;5030955;28;20381;-63
2021/05/19 10:08:54;;;;;;;1.23;0.90;;;;;;;;;;5013256;28;20415;-62
2021/05/19 10:11:20;;;;;;;1.43;0.60;;;;;;;;;;5031271;28;20775;-65
2021/05/19 10:13:46;;;;;;;0.50;0.40;;;;;;;;;;5030947;28;20411;-65
2021/05/19 10:16:16;;;;;;;1.00;0.60;;;;;;;;;;5030516;28;20891;-65
2021/05/19 10:19:03;;;;;;;0.43;0.43;;;;;;;;;;5031291;28;20420;-65
2021/05/19 10:21:33;;;;;;;0.53;0.53;;;;;;;;;;5031742;28;20429;-65
2021/05/19 10:24:11;;;;;;;0.70;0.50;;;;;;;;;;5031209;28;20407;-64
2021/05/19 10:26:56;;;;;;;0.40;0.40;;;;;;;;;;5031215;28;20411;-64
2021/05/19 10:29:51;;;;;;;0.80;0.50;;;;;;;;;;5030995;28;20559;-64
2021/05/19 10:32:25;;;;;;;0.40;0.30;;;;;;;;;;5014582;28;20415;-64
2021/05/19 10:34:52;;;;;;;0.80;0.50;;;;;;;;;;5031113;28;20420;-66
2021/05/19 10:37:27;;;;;;;0.80;0.60;;;;;;;;;;5031043;28;20465;-65
2021/05/19 10:40:18;;;;;;;0.50;0.50;;;;;;;;;;5031060;28;20506;-65
2021/05/19 10:42:45;;;;;;;0.60;0.60;;;;;;;;;;5031356;28;20380;-65
2021/05/19 10:45:14;;;;;;;0.80;0.70;;;;;;;;;;5031085;28;20429;-65
2021/05/19 10:47:41;;;;;;;0.70;0.60;;;;;;;;;;5031306;28;20408;-65
2021/05/19 10:50:14;;;;;;;0.87;0.40;;;;;;;;;;5031108;28;20424;-65
2021/05/19 11:01:08;;;;;;;0.50;0.40;;;;;;;;;;5032148;28;20382;-65
2021/05/19 11:03:34;;;;;;;0.97;0.50;;;;;;;;;;5031961;28;20388;-65
2021/05/19 11:06:00;;;;;;;0.60;0.40;;;;;;;;;;5033034;28;20431;-64
2021/05/19 11:08:30;;;;;;;2.27;0.50;;;;;;;;;;5034492;28;20475;-64
2021/05/19 11:11:16;;;;;;;0.50;0.50;;;;;;;;;;5034716;28;20491;-65
2021/05/19 11:14:05;;;;;;;0.47;0.47;;;;;;;;;;5034526;28;20403;-65
2021/05/19 11:16:56;;;;;;;0.80;0.70;;;;;;;;;;5034455;28;20407;-65
2021/05/19 11:19:28;;;;;;;1.17;0.77;;;;;;;;;;5034205;28;20458;-64
2021/05/19 11:21:58;;;;;;;1.37;0.70;;;;;;;;;;5034606;28;20473;-64
2021/05/19 11:24:26;;;;;;;0.60;0.50;;;;;;;;;;5034316;28;20445;-65
2021/05/19 11:26:53;;;;;;;0.77;0.67;;;;;;;;;;5034165;28;20409;-64
2021/05/19 11:29:19;;;;;;;0.50;0.40;;;;;;;;;;5034084;28;20416;-64
2021/05/19 11:31:47;;;;;;;0.90;0.50;;;;;;;;;;5034338;28;20405;-65
2021/05/19 11:34:13;;;;;;;2.57;0.50;;;;;;;;;;5034109;28;20433;-64
2021/05/19 11:36:41;;;;;;;0.60;0.50;;;;;;;;;;5034111;28;20420;-64
2021/05/19 11:39:26;;;;;;;0.40;0.40;;;;;;;;;;5033816;28;20482;-65
2021/05/19 11:41:54;;;;;;;0.57;0.57;;;;;;;;;;5032304;28;20396;-64
2021/05/19 11:44:29;;;;;;;0.50;0.50;;;;;;;;;;5033556;28;20405;-64
2021/05/19 11:46:55;;;;;;;0.63;0.50;;;;;;;;;;5016100;28;20914;-64
2021/05/19 11:49:21;;;;;;;0.67;0.60;;;;;;;;;;5033316;28;20375;-64
2021/05/19 11:51:47;;;;;;;0.57;0.50;;;;;;;;;;5033402;28;20378;-64
2021/05/19 11:54:13;;;;;;;0.50;0.47;;;;;;;;;;5033280;28;20477;-64
2021/05/19 11:56:41;;;;;;;0.60;0.60;;;;;;;;;;5033162;28;20386;-64
2021/05/19 11:59:36;;;;;;;0.40;0.40;;;;;;;;;;5033147;28;20838;-64
2021/05/19 12:02:20;;;;;;;0.50;0.50;;;;;;;;;;5030321;28;20423;-64
2021/05/19 12:04:46;;;;;;;0.50;0.50;;;;;;;;;;5033250;28;20507;-64
2021/05/19 12:07:14;;;;;;;0.50;0.50;;;;;;;;;;5033113;28;20383;-64
2021/05/19 12:09:41;;;;;;;0.50;0.40;;;;;;;;;;5032873;28;20510;-64
2021/05/19 12:12:08;;;;;;;0.60;0.50;;;;;;;;;;5033025;28;20382;-64
2021/05/19 12:14:34;;;;;;;0.93;0.57;;;;;;;;;;5032637;28;20431;-64
2021/05/19 12:17:02;;;;;;;0.50;0.50;;;;;;;;;;5031798;28;20426;-64
2021/05/19 12:19:29;;;;;;;1.40;0.77;;;;;;;;;;5032648;28;20458;-64
2021/05/19 12:22:12;;;;;;;0.40;0.40;;;;;;;;;;5032893;28;20438;-64
2021/05/19 12:24:38;;;;;;;1.00;0.70;;;;;;;;;;5032770;28;20447;-64
2021/05/19 12:27:05;;;;;;;0.57;0.57;;;;;;;;;;5032252;28;20744;-63
2021/05/19 12:29:31;;;;;;;0.80;0.77;;;;;;;;;;5031876;28;20419;-64
2021/05/19 12:32:27;;;;;;;0.70;0.70;;;;;;;;;;5031974;28;20386;-64
2021/05/19 12:35:00;;;;;;;0.50;0.40;;;;;;;;;;5010685;28;20545;-64
2021/05/19 12:37:41;;;;;;;0.67;0.50;;;;;;;;;;5031721;28;20416;-65
2021/05/19 12:40:08;;;;;;;0.60;0.50;;;;;;;;;;5031388;28;20436;-65
2021/05/19 12:42:46;;;;;;;0.50;0.50;;;;;;;;;;5031765;28;20433;-64
2021/05/19 12:45:13;;;;;;;0.67;0.67;;;;;;;;;;5031592;28;20436;-64
2021/05/19 12:47:39;;;;;;;0.77;0.60;;;;;;;;;;5013695;28;20427;-64
2021/05/19 12:50:07;;;;;;;0.70;0.70;;;;;;;;;;5031291;28;20404;-64
2021/05/19 12:52:34;;;;;;;0.57;0.57;;;;;;;;;;5031514;28;20412;-64
2021/05/19 12:55:00;;;;;;;0.40;0.30;;;;;;;;;;5048268;28;20446;-64
2021/05/19 12:57:27;;;;;;;0.70;0.70;;;;;;;;;;5051234;28;20419;-64
2021/05/19 13:00:03;;;;;;;0.50;0.50;;;;;;;;;;5051211;28;20907;-64
2021/05/19 13:02:31;;;;;;;0.60;0.60;;;;;;;;;;5051370;28;20407;-64
2021/05/19 13:04:58;;;;;;;0.80;0.70;;;;;;;;;;5051305;28;20487;-64
2021/05/19 13:07:25;;;;;;;1.00;0.90;;;;;;;;;;5051538;28;20402;-64
2021/05/19 13:10:27;;;;;;;0.70;0.50;;;;;;;;;;5050904;28;20437;-64
2021/05/19 13:13:10;;;;;;;0.40;0.40;;;;;;;;;;5051140;28;20596;-64
2021/05/19 13:15:40;;;;;;;0.87;0.50;;;;;;;;;;5051053;28;20478;-64
2021/05/19 13:18:18;;;;;;;0.80;0.40;;;;;;;;;;5050714;28;20407;-64
2021/05/19 13:20:57;;;;;;;0.70;0.70;;;;;;;;;;5050892;28;21002;-65
2021/05/19 13:23:23;;;;;;;0.90;0.60;;;;;;;;;;5051542;28;20411;-64
2021/05/19 13:25:49;;;;;;;0.57;0.57;;;;;;;;;;5050646;28;20465;-64
2021/05/19 13:28:25;;;;;;;0.50;0.50;;;;;;;;;;5050810;28;20778;-64
2021/05/19 13:30:51;;;;;;;1.00;1.00;;;;;;;;;;5050909;28;20381;-64
2021/05/19 13:33:38;;;;;;;0.70;0.60;;;;;;;;;;5050738;28;20422;-65
2021/05/19 13:36:21;;;;;;;0.40;0.40;;;;;;;;;;5051121;28;20429;-64
2021/05/19 13:38:47;;;;;;;0.70;0.50;;;;;;;;;;5050481;28;20411;-64
2021/05/19 13:41:16;;;;;;;0.60;0.60;;;;;;;;;;5050719;28;20789;-64
2021/05/19 13:43:42;;;;;;;0.60;0.60;;;;;;;;;;5050656;28;20406;-64
2021/05/19 13:46:08;;;;;;;0.50;0.50;;;;;;;;;;5050400;28;20932;-65
2021/05/19 13:48:34;;;;;;;0.70;0.40;;;;;;;;;;5050313;28;20497;-64
2021/05/19 13:51:00;;;;;;;0.40;0.33;;;;;;;;;;5050326;28;20556;-64
2021/05/19 13:53:26;;;;;;;1.27;0.97;;;;;;;;;;5050727;28;20744;-65
2021/05/19 13:55:52;;;;;;;0.50;0.50;;;;;;;;;;5050313;28;20477;-64
2021/05/19 13:58:18;;;;;;;0.50;0.50;;;;;;;;;;5050391;28;20407;-64
2021/05/19 14:00:44;;;;;;;3.30;0.67;;;;;;;;;;5050051;28;20432;-64
2021/05/19 14:03:10;;;;;;;0.40;0.40;;;;;;;;;;5050153;28;20406;-64
2021/05/19 14:05:37;;;;;;;0.50;0.50;;;;;;;;;;5050271;28;20500;-65
2021/05/19 14:08:03;;;;;;;0.67;0.67;;;;;;;;;;5050222;28;20398;-64
2021/05/19 14:10:31;;;;;;;0.50;0.47;;;;;;;;;;5049971;28;20442;-64
2021/05/19 14:13:06;;;;;;;0.60;0.60;;;;;;;;;;5049179;28;20395;-64
2021/05/19 14:18:26;;;;;;;1.33;0.60;;;;;;;;;;5050332;28;20819;-64
2021/05/19 14:28:47;;;;;;;0.77;0.53;;;;;;;;;;5050305;28;20409;-64
2021/05/19 14:31:13;;;;;;;0.53;0.53;;;;;;;;;;5032526;28;20411;-64
2021/05/19 14:33:39;;;;;;;0.50;0.50;;;;;;;;;;5050258;28;20442;-64
2021/05/19 14:44:51;;;;;;;1.80;0.80;;;;;;;;;;5054113;28;20495;-64
2021/05/19 15:00:51;;;;;;;0.40;0.40;;;;;;;;;;5053899;28;20537;-64
2021/05/19 15:03:18;;;;;;;0.60;0.53;;;;;;;;;;5053969;28;20406;-64
2021/05/19 15:05:44;;;;;;;0.50;0.50;;;;;;;;;;5054083;28;20430;-64
2021/05/19 15:08:10;;;;;;;0.50;0.50;;;;;;;;;;5053727;28;20485;-64
2021/05/19 15:10:36;;;;;;;0.60;0.57;;;;;;;;;;5053780;28;20529;-64
2021/05/19 15:13:04;;;;;;;0.50;0.50;;;;;;;;;;5054048;28;20486;-64
2021/05/19 15:15:30;;;;;;;0.40;0.40;;;;;;;;;;5053669;28;20928;-64
2021/05/19 15:17:59;;;;;;;1.08;0.60;;;;;;;;;;5053680;28;20381;-64
2021/05/19 15:20:26;;;;;;;0.50;0.50;;;;;;;;;;5053431;28;20219;-64
2021/05/19 15:22:54;;;;;;;0.50;0.50;;;;;;;;;;5053625;28;20467;-64
2021/05/19 15:25:20;;;;;;;0.50;0.50;;;;;;;;;;5054602;28;20797;-64
2021/05/19 15:27:46;;;;;;;0.50;0.50;;;;;;;;;;5053299;28;20551;-64
2021/05/19 15:30:12;;;;;;;0.43;0.43;;;;;;;;;;5053306;28;20176;-64
2021/05/19 15:32:38;;;;;;;2.90;0.77;;;;;;;;;;5053574;28;20176;-64
2021/05/19 15:35:04;;;;;;;0.40;0.40;;;;;;;;;;5053136;28;20503;-64
2021/05/19 15:37:31;;;;;;;0.60;0.60;;;;;;;;;;5053534;28;20411;-64
2021/05/19 15:39:57;;;;;;;0.50;0.50;;;;;;;;;;5052983;28;20521;-64
2021/05/19 15:42:23;;;;;;;0.60;0.60;;;;;;;;;;5052994;28;20280;-64